createdAt,value
2019-03-29T00:00:21.369Z,9.90
2019-03-29T00:01:21.355Z,9.90
2019-03-29T00:02:21.342Z,12.10
2019-03-29T00:03:21.340Z,10.00
2019-03-29T00:04:21.317Z,11.20
2019-03-29T00:05:21.302Z,10.20
2019-03-29T00:06:21.291Z,10.60
2019-03-29T00:07:21.281Z,10.50
2019-03-29T00:08:21.265Z,11.60
2019-03-29T00:09:21.252Z,11.10
2019-03-29T00:10:21.241Z,13.00
2019-03-29T00:11:21.227Z,11.30
2019-03-29T00:12:21.219Z,12.40
2019-03-29T00:13:21.202Z,11.10
2019-03-29T00:14:23.521Z,12.00
2019-03-29T00:15:21.178Z,11.70
2019-03-29T00:16:21.163Z,12.20
2019-03-29T00:17:21.150Z,10.70
2019-03-29T00:18:21.138Z,12.80
2019-03-29T00:19:21.125Z,11.00
2019-03-29T00:20:21.113Z,12.40
2019-03-29T00:21:21.101Z,11.90
2019-03-29T00:22:21.088Z,10.70
2019-03-29T00:23:21.073Z,10.50
2019-03-29T00:24:21.060Z,10.60
2019-03-29T00:25:21.052Z,12.00
2019-03-29T00:26:21.038Z,13.00
2019-03-29T00:27:21.025Z,10.90
2019-03-29T00:28:21.011Z,13.70
2019-03-29T00:29:20.995Z,11.20
2019-03-29T00:30:21.414Z,14.90
2019-03-29T00:31:20.970Z,12.10
2019-03-29T00:32:20.964Z,11.50
2019-03-29T00:33:20.945Z,11.70
2019-03-29T00:34:20.931Z,12.20
2019-03-29T00:35:20.919Z,13.90
2019-03-29T00:36:20.907Z,14.10
2019-03-29T00:37:20.893Z,9.90
2019-03-29T00:38:20.879Z,12.10
2019-03-29T00:39:20.869Z,11.00
2019-03-29T00:40:20.854Z,10.90
2019-03-29T00:41:20.842Z,11.10
2019-03-29T00:42:20.829Z,12.90
2019-03-29T00:43:20.816Z,11.80
2019-03-29T00:44:20.802Z,11.30
2019-03-29T00:45:20.790Z,11.10
2019-03-29T00:46:20.777Z,13.10
2019-03-29T00:47:20.765Z,11.30
2019-03-29T00:48:21.240Z,11.00
2019-03-29T00:49:20.739Z,12.40
2019-03-29T00:50:20.769Z,13.90
2019-03-29T00:51:20.714Z,11.30
2019-03-29T00:52:20.700Z,11.30
2019-03-29T00:53:20.685Z,14.80
2019-03-29T00:54:20.672Z,10.20
2019-03-29T00:55:20.950Z,11.60
2019-03-29T00:56:20.645Z,11.50
2019-03-29T00:57:20.633Z,11.80
2019-03-29T00:58:20.620Z,12.80
2019-03-29T00:59:20.606Z,12.10
2019-03-29T01:00:20.594Z,11.10
2019-03-29T01:01:20.580Z,12.10
2019-03-29T01:02:20.565Z,13.30
2019-03-29T01:03:20.554Z,11.50
2019-03-29T01:04:20.539Z,11.90
2019-03-29T01:05:20.974Z,11.20
2019-03-29T01:06:20.513Z,11.90
2019-03-29T01:07:20.500Z,12.30
2019-03-29T01:08:20.487Z,11.40
2019-03-29T01:09:20.473Z,11.80
2019-03-29T01:10:20.459Z,14.00
2019-03-29T01:11:20.446Z,12.80
2019-03-29T01:12:20.435Z,10.90
2019-03-29T01:13:20.420Z,14.10
2019-03-29T01:14:20.407Z,12.50
2019-03-29T01:15:20.397Z,13.80
2019-03-29T01:16:20.381Z,14.40
2019-03-29T01:17:20.381Z,11.60
2019-03-29T01:18:20.354Z,13.20
2019-03-29T01:19:20.342Z,12.00
2019-03-29T01:20:20.385Z,13.00
2019-03-29T01:21:20.324Z,14.70
2019-03-29T01:22:20.301Z,11.90
2019-03-29T01:23:20.289Z,12.10
2019-03-29T01:24:20.277Z,11.50
2019-03-29T01:25:20.263Z,12.40
2019-03-29T01:26:20.249Z,12.80
2019-03-29T01:27:20.235Z,12.90
2019-03-29T01:28:20.223Z,10.80
2019-03-29T01:29:20.206Z,13.30
2019-03-29T01:30:20.194Z,13.60
2019-03-29T01:31:20.181Z,10.90
2019-03-29T01:32:20.168Z,12.70
2019-03-29T01:33:20.154Z,12.70
2019-03-29T01:34:20.141Z,12.00
2019-03-29T01:35:20.129Z,11.50
2019-03-29T01:36:20.116Z,11.10
2019-03-29T01:37:20.146Z,12.00
2019-03-29T01:38:22.164Z,12.00
2019-03-29T01:39:20.074Z,14.40
2019-03-29T01:40:20.061Z,12.80
2019-03-29T01:41:20.057Z,10.80
2019-03-29T01:42:20.033Z,11.50
2019-03-29T01:43:20.022Z,13.20
2019-03-29T01:44:20.008Z,11.40
2019-03-29T01:45:20.057Z,11.60
2019-03-29T01:46:19.980Z,11.80
2019-03-29T01:47:19.970Z,11.60
2019-03-29T01:48:19.956Z,13.30
2019-03-29T01:49:19.939Z,14.50
2019-03-29T01:50:19.926Z,12.80
2019-03-29T01:51:19.918Z,12.00
2019-03-29T01:52:20.019Z,12.70
2019-03-29T01:53:19.887Z,11.30
2019-03-29T01:54:19.872Z,15.20
2019-03-29T01:55:19.860Z,11.80
2019-03-29T01:56:19.849Z,11.30
2019-03-29T01:57:19.832Z,11.30
2019-03-29T01:58:19.822Z,13.40
2019-03-29T01:59:19.805Z,11.50
2019-03-29T02:00:19.793Z,14.10
2019-03-29T02:01:19.778Z,12.60
2019-03-29T02:02:20.274Z,12.70
2019-03-29T02:03:19.753Z,10.90
2019-03-29T02:04:19.738Z,11.70
2019-03-29T02:05:19.728Z,12.70
2019-03-29T02:06:19.894Z,11.30
2019-03-29T02:09:00.754Z,12.30
2019-03-29T02:10:00.742Z,11.70
2019-03-29T02:11:00.725Z,11.70
2019-03-29T02:12:00.716Z,12.80
2019-03-29T02:13:00.700Z,12.50
2019-03-29T02:14:00.685Z,13.70
2019-03-29T02:15:00.672Z,12.90
2019-03-29T02:16:00.661Z,12.40
2019-03-29T02:17:00.644Z,11.40
2019-03-29T02:18:00.632Z,12.60
2019-03-29T02:19:00.617Z,12.20
2019-03-29T02:20:00.604Z,12.00
2019-03-29T02:21:00.592Z,13.10
2019-03-29T02:22:00.577Z,12.90
2019-03-29T02:23:00.565Z,14.30
2019-03-29T02:24:00.552Z,12.10
2019-03-29T02:25:00.540Z,12.70
2019-03-29T02:26:00.524Z,11.80
2019-03-29T02:27:00.964Z,12.00
2019-03-29T02:28:00.499Z,12.20
2019-03-29T02:29:00.483Z,13.60
2019-03-29T02:30:00.623Z,12.20
2019-03-29T02:31:00.456Z,12.00
2019-03-29T02:32:00.442Z,12.10
2019-03-29T02:33:00.437Z,12.50
2019-03-29T02:34:00.418Z,12.00
2019-03-29T02:35:00.477Z,12.60
2019-03-29T02:36:00.397Z,13.50
2019-03-29T02:37:02.025Z,12.50
2019-03-29T02:38:00.364Z,13.20
2019-03-29T02:39:00.348Z,12.30
2019-03-29T02:40:00.689Z,14.20
2019-03-29T02:41:00.321Z,12.30
2019-03-29T02:42:00.309Z,12.40
2019-03-29T02:43:00.295Z,12.40
2019-03-29T02:44:00.283Z,12.90
2019-03-29T02:45:00.601Z,13.80
2019-03-29T02:46:00.255Z,15.80
2019-03-29T02:47:00.240Z,13.40
2019-03-29T02:48:00.371Z,12.20
2019-03-29T02:49:00.217Z,14.40
2019-03-29T02:50:00.496Z,13.90
2019-03-29T02:51:00.197Z,12.20
2019-03-29T02:52:00.183Z,12.30
2019-03-29T02:53:00.165Z,13.80
2019-03-29T02:54:00.148Z,13.10
2019-03-29T02:55:00.204Z,12.90
2019-03-29T02:56:00.120Z,13.20
2019-03-29T02:57:00.109Z,14.00
2019-03-29T02:58:00.099Z,13.20
2019-03-29T02:59:00.083Z,12.70
2019-03-29T03:00:00.546Z,12.10
2019-03-29T03:01:00.057Z,13.40
2019-03-29T03:02:00.041Z,12.40
2019-03-29T03:03:00.027Z,13.70
2019-03-29T03:04:00.012Z,13.50
2019-03-29T03:05:00.005Z,12.30
2019-03-29T03:05:59.988Z,15.40
2019-03-29T03:06:59.976Z,13.40
2019-03-29T03:07:59.963Z,13.20
2019-03-29T03:09:12.972Z,14.50
2019-03-29T03:09:59.941Z,12.90
2019-03-29T03:10:59.935Z,13.70
2019-03-29T03:11:59.908Z,12.50
2019-03-29T03:12:59.894Z,13.40
2019-03-29T03:13:59.881Z,13.90
2019-03-29T03:14:59.868Z,13.80
2019-03-29T03:15:59.857Z,12.80
2019-03-29T03:16:59.843Z,14.10
2019-03-29T03:17:59.827Z,13.60
2019-03-29T03:18:59.825Z,13.40
2019-03-29T03:19:59.801Z,14.40
2019-03-29T03:20:59.788Z,13.60
2019-03-29T03:21:59.778Z,13.50
2019-03-29T03:22:59.760Z,13.30
2019-03-29T03:23:59.749Z,13.60
2019-03-29T03:24:59.736Z,16.10
2019-03-29T03:25:59.727Z,14.20
2019-03-29T03:26:59.709Z,14.30
2019-03-29T03:27:59.697Z,14.40
2019-03-29T03:28:59.689Z,14.80
2019-03-29T03:29:59.748Z,13.80
2019-03-29T03:30:59.662Z,14.90
2019-03-29T03:31:59.646Z,16.60
2019-03-29T03:32:59.631Z,16.10
2019-03-29T03:33:59.616Z,14.70
2019-03-29T03:34:59.608Z,14.90
2019-03-29T03:35:59.598Z,14.10
2019-03-29T03:36:59.581Z,15.40
2019-03-29T03:37:59.561Z,14.20
2019-03-29T03:38:59.564Z,14.50
2019-03-29T03:39:59.538Z,14.30
2019-03-29T03:40:59.525Z,15.50
2019-03-29T03:41:59.507Z,14.90
2019-03-29T03:42:59.495Z,14.40
2019-03-29T03:43:59.479Z,15.30
2019-03-29T03:44:59.468Z,15.10
2019-03-29T03:45:59.458Z,14.30
2019-03-29T03:46:59.451Z,14.00
2019-03-29T03:47:59.427Z,15.40
2019-03-29T03:48:59.422Z,14.60
2019-03-29T03:50:01.153Z,15.30
2019-03-29T03:50:59.387Z,16.50
2019-03-29T03:51:59.376Z,19.20
2019-03-29T03:52:59.358Z,15.30
2019-03-29T03:53:59.344Z,15.30
2019-03-29T03:54:59.333Z,16.80
2019-03-29T03:55:59.323Z,15.30
2019-03-29T03:56:59.308Z,15.20
2019-03-29T03:57:59.293Z,14.80
2019-03-29T03:58:59.298Z,16.00
2019-03-29T03:59:59.265Z,16.70
2019-03-29T04:00:59.284Z,15.20
2019-03-29T04:01:59.243Z,14.80
2019-03-29T04:02:59.224Z,16.50
2019-03-29T04:03:59.209Z,16.20
2019-03-29T04:04:59.196Z,15.50
2019-03-29T04:05:59.195Z,15.40
2019-03-29T04:06:59.172Z,15.60
2019-03-29T04:07:59.154Z,16.10
2019-03-29T04:08:59.144Z,15.30
2019-03-29T04:09:59.125Z,17.60
2019-03-29T04:10:59.127Z,16.60
2019-03-29T04:11:59.099Z,16.70
2019-03-29T04:12:59.093Z,14.80
2019-03-29T04:13:59.169Z,15.70
2019-03-29T04:14:59.059Z,16.70
2019-03-29T04:15:59.045Z,16.70
2019-03-29T04:16:59.035Z,16.00
2019-03-29T04:17:59.016Z,15.30
2019-03-29T04:18:59.003Z,15.70
2019-03-29T04:19:58.991Z,16.60
2019-03-29T04:20:58.986Z,16.10
2019-03-29T04:21:58.964Z,16.10
2019-03-29T04:22:58.950Z,15.90
2019-03-29T04:23:58.933Z,16.20
2019-03-29T04:24:58.921Z,17.70
2019-03-29T04:25:58.908Z,16.00
2019-03-29T04:26:58.891Z,16.10
2019-03-29T04:27:58.878Z,16.40
2019-03-29T04:29:04.901Z,15.50
2019-03-29T04:29:58.850Z,15.40
2019-03-29T04:30:58.839Z,17.90
2019-03-29T04:31:58.825Z,15.80
2019-03-29T04:32:58.815Z,17.40
2019-03-29T04:33:58.792Z,16.90
2019-03-29T04:34:58.799Z,17.00
2019-03-29T04:35:58.769Z,16.50
2019-03-29T04:36:58.754Z,17.00
2019-03-29T04:37:58.738Z,16.80
2019-03-29T04:38:58.724Z,17.60
2019-03-29T04:40:06.864Z,17.10
2019-03-29T04:40:58.701Z,16.70
2019-03-29T04:41:58.682Z,18.10
2019-03-29T04:42:58.671Z,16.60
2019-03-29T04:43:58.655Z,16.50
2019-03-29T04:44:59.995Z,16.80
2019-03-29T04:45:58.629Z,17.40
2019-03-29T04:46:58.617Z,17.30
2019-03-29T04:47:58.603Z,15.60
2019-03-29T04:48:58.589Z,17.20
2019-03-29T04:49:58.575Z,16.80
2019-03-29T04:50:58.563Z,18.00
2019-03-29T04:51:58.546Z,17.70
2019-03-29T04:52:58.533Z,17.40
2019-03-29T04:53:58.518Z,15.90
2019-03-29T04:54:58.504Z,18.10
2019-03-29T04:55:58.490Z,18.20
2019-03-29T04:56:58.475Z,15.90
2019-03-29T04:57:58.460Z,16.70
2019-03-29T04:58:58.451Z,17.00
2019-03-29T04:59:58.436Z,16.00
2019-03-29T05:00:58.466Z,17.40
2019-03-29T05:01:58.414Z,16.10
2019-03-29T05:02:58.394Z,16.10
2019-03-29T05:03:58.379Z,17.20
2019-03-29T05:04:58.368Z,17.80
2019-03-29T05:05:58.355Z,17.30
2019-03-29T05:06:58.337Z,18.30
2019-03-29T05:07:58.322Z,16.20
2019-03-29T05:08:58.309Z,17.40
2019-03-29T05:09:58.297Z,18.30
2019-03-29T05:10:58.282Z,16.80
2019-03-29T05:11:58.271Z,16.70
2019-03-29T05:12:59.686Z,18.50
2019-03-29T05:13:58.242Z,17.70
2019-03-29T05:14:58.227Z,18.70
2019-03-29T05:15:58.217Z,20.40
2019-03-29T05:16:58.206Z,16.50
2019-03-29T05:17:58.187Z,18.20
2019-03-29T05:18:58.174Z,18.30
2019-03-29T05:19:58.161Z,18.40
2019-03-29T05:20:58.144Z,17.80
2019-03-29T05:21:58.128Z,19.20
2019-03-29T05:22:58.125Z,17.10
2019-03-29T05:23:58.105Z,18.90
2019-03-29T05:24:58.091Z,19.20
2019-03-29T05:25:58.076Z,16.90
2019-03-29T05:26:58.060Z,19.40
2019-03-29T05:27:58.054Z,18.50
2019-03-29T05:28:58.034Z,19.10
2019-03-29T05:29:58.020Z,18.50
2019-03-29T05:30:58.009Z,17.90
2019-03-29T05:31:57.992Z,21.30
2019-03-29T05:32:57.976Z,19.50
2019-03-29T05:33:57.964Z,18.50
2019-03-29T05:34:57.948Z,20.00
2019-03-29T05:35:57.935Z,20.30
2019-03-29T05:36:58.575Z,18.90
2019-03-29T05:37:57.909Z,18.20
2019-03-29T05:38:57.892Z,20.20
2019-03-29T05:39:57.880Z,18.30
2019-03-29T05:40:57.867Z,21.00
2019-03-29T05:41:57.852Z,18.60
2019-03-29T05:42:57.839Z,19.50
2019-03-29T05:43:57.826Z,18.00
2019-03-29T05:44:57.811Z,21.80
2019-03-29T05:45:57.799Z,18.30
2019-03-29T05:46:57.785Z,18.30
2019-03-29T05:47:57.773Z,21.70
2019-03-29T05:48:57.760Z,19.00
2019-03-29T05:49:57.742Z,19.60
2019-03-29T05:50:57.730Z,19.00
2019-03-29T05:51:57.714Z,18.50
2019-03-29T05:52:57.702Z,19.00
2019-03-29T05:53:57.687Z,18.60
2019-03-29T05:54:57.675Z,21.00
2019-03-29T05:55:57.661Z,19.40
2019-03-29T05:56:57.651Z,19.20
2019-03-29T05:57:57.720Z,20.30
2019-03-29T05:58:57.616Z,19.50
2019-03-29T05:59:57.603Z,20.40
2019-03-29T06:00:57.594Z,19.10
2019-03-29T06:01:57.575Z,22.70
2019-03-29T06:02:57.564Z,20.20
2019-03-29T06:03:57.549Z,17.60
2019-03-29T06:04:57.536Z,18.40
2019-03-29T06:05:57.522Z,18.30
2019-03-29T06:06:57.510Z,18.80
2019-03-29T06:07:57.492Z,18.00
2019-03-29T06:08:57.489Z,20.00
2019-03-29T06:09:57.467Z,18.70
2019-03-29T06:10:57.452Z,20.10
2019-03-29T06:11:57.438Z,17.90
2019-03-29T06:12:57.431Z,19.50
2019-03-29T06:13:57.412Z,18.00
2019-03-29T06:14:57.396Z,18.10
2019-03-29T06:15:57.383Z,18.70
2019-03-29T06:16:57.371Z,18.20
2019-03-29T06:17:57.360Z,17.80
2019-03-29T06:18:57.346Z,17.90
2019-03-29T06:19:57.333Z,19.40
2019-03-29T06:20:57.318Z,19.10
2019-03-29T06:21:57.306Z,18.70
2019-03-29T06:22:57.296Z,18.20
2019-03-29T06:23:57.280Z,17.20
2019-03-29T06:24:57.266Z,18.80
2019-03-29T06:25:57.273Z,17.70
2019-03-29T06:26:57.239Z,17.40
2019-03-29T06:27:57.222Z,21.90
2019-03-29T06:28:57.215Z,17.20
2019-03-29T06:29:57.199Z,18.40
2019-03-29T06:30:57.186Z,16.60
2019-03-29T06:31:57.174Z,18.20
2019-03-29T06:32:57.160Z,17.70
2019-03-29T06:33:57.146Z,18.70
2019-03-29T06:34:57.132Z,17.90
2019-03-29T06:35:57.127Z,16.70
2019-03-29T06:36:57.113Z,16.90
2019-03-29T06:37:57.097Z,18.40
2019-03-29T06:38:57.088Z,18.50
2019-03-29T06:39:57.110Z,17.70
2019-03-29T06:41:03.018Z,17.40
2019-03-29T06:41:57.049Z,16.70
2019-03-29T06:42:57.036Z,18.00
2019-03-29T06:43:57.023Z,15.30
2019-03-29T06:44:57.014Z,16.20
2019-03-29T06:45:57.000Z,17.10
2019-03-29T06:46:56.989Z,15.80
2019-03-29T06:47:56.978Z,16.20
2019-03-29T06:48:56.965Z,16.40
2019-03-29T06:49:56.949Z,15.80
2019-03-29T06:50:56.942Z,16.80
2019-03-29T06:51:56.930Z,16.30
2019-03-29T06:52:56.918Z,16.80
2019-03-29T06:53:56.904Z,16.20
2019-03-29T06:54:56.889Z,16.00
2019-03-29T06:55:59.305Z,14.90
2019-03-29T06:56:56.869Z,17.20
2019-03-29T06:57:56.856Z,16.30
2019-03-29T06:58:56.847Z,16.90
2019-03-29T06:59:56.839Z,16.20
2019-03-29T07:00:56.826Z,17.10
2019-03-29T07:01:56.812Z,16.10
2019-03-29T07:02:56.799Z,16.00
2019-03-29T07:03:56.789Z,16.70
2019-03-29T07:04:56.778Z,17.60
2019-03-29T07:05:56.767Z,18.80
2019-03-29T07:06:56.755Z,18.50
2019-03-29T07:07:56.740Z,18.50
2019-03-29T07:08:56.732Z,15.60
2019-03-29T07:09:56.720Z,16.30
2019-03-29T07:10:56.721Z,16.10
2019-03-29T07:11:56.697Z,15.90
2019-03-29T07:12:56.737Z,16.20
2019-03-29T07:13:58.144Z,16.10
2019-03-29T07:14:56.666Z,16.90
2019-03-29T07:15:56.653Z,16.00
2019-03-29T07:16:56.643Z,16.20
2019-03-29T07:17:56.632Z,16.10
2019-03-29T07:18:56.621Z,17.10
2019-03-29T07:19:56.609Z,16.10
2019-03-29T07:20:56.601Z,18.00
2019-03-29T07:21:56.590Z,18.40
2019-03-29T07:22:56.580Z,15.80
2019-03-29T07:23:56.569Z,16.50
2019-03-29T07:24:56.557Z,17.40
2019-03-29T07:25:56.707Z,17.70
2019-03-29T07:26:56.534Z,17.20
2019-03-29T07:27:56.526Z,18.60
2019-03-29T07:28:56.514Z,16.00
2019-03-29T07:29:56.505Z,17.80
2019-03-29T07:30:56.498Z,17.70
2019-03-29T07:31:56.486Z,18.10
2019-03-29T07:32:56.473Z,18.20
2019-03-29T07:33:56.464Z,18.10
2019-03-29T07:34:56.451Z,20.30
2019-03-29T07:35:56.441Z,21.10
2019-03-29T07:36:56.432Z,17.80
2019-03-29T07:37:56.423Z,18.90
2019-03-29T07:38:56.407Z,18.00
2019-03-29T07:39:56.397Z,19.20
2019-03-29T07:40:56.391Z,19.80
2019-03-29T07:41:56.379Z,18.40
2019-03-29T07:42:56.369Z,19.20
2019-03-29T07:43:56.359Z,18.80
2019-03-29T07:44:56.353Z,18.60
2019-03-29T07:45:56.340Z,17.60
2019-03-29T07:46:56.329Z,19.40
2019-03-29T07:47:56.316Z,18.90
2019-03-29T07:48:56.305Z,19.10
2019-03-29T07:49:56.292Z,20.60
2019-03-29T07:50:56.285Z,18.60
2019-03-29T07:51:56.272Z,17.80
2019-03-29T07:52:56.264Z,18.10
2019-03-29T07:53:56.250Z,18.20
2019-03-29T07:54:56.243Z,17.50
2019-03-29T07:55:56.230Z,19.30
2019-03-29T07:56:56.220Z,19.30
2019-03-29T07:57:56.207Z,18.30
2019-03-29T07:58:56.200Z,17.60
2019-03-29T07:59:56.191Z,18.20
2019-03-29T08:00:56.175Z,18.30
2019-03-29T08:01:56.163Z,18.90
2019-03-29T08:02:56.156Z,17.00
2019-03-29T08:03:56.143Z,18.20
2019-03-29T08:04:56.133Z,18.30
2019-03-29T08:05:56.122Z,17.70
2019-03-29T08:06:56.113Z,16.10
2019-03-29T08:07:56.100Z,17.30
2019-03-29T08:08:56.091Z,17.40
2019-03-29T08:09:56.078Z,17.60
2019-03-29T08:10:56.073Z,19.20
2019-03-29T08:11:56.059Z,17.90
2019-03-29T08:12:56.048Z,18.20
2019-03-29T08:13:56.031Z,17.60
2019-03-29T08:14:56.023Z,18.80
2019-03-29T08:15:56.018Z,17.50
2019-03-29T08:16:56.020Z,19.10
2019-03-29T08:17:55.989Z,18.70
2019-03-29T08:18:55.978Z,19.30
2019-03-29T08:20:24.464Z,18.40
2019-03-29T08:20:55.955Z,17.90
2019-03-29T08:21:57.802Z,21.70
2019-03-29T08:22:55.933Z,19.00
2019-03-29T08:23:55.924Z,19.20
2019-03-29T08:24:59.083Z,18.20
2019-03-29T08:25:55.903Z,19.90
2019-03-29T08:26:55.892Z,17.70
2019-03-29T08:27:55.879Z,19.10
2019-03-29T08:28:55.871Z,17.40
2019-03-29T08:29:55.858Z,18.00
2019-03-29T08:30:55.847Z,18.90
2019-03-29T08:31:55.947Z,18.10
2019-03-29T08:32:55.828Z,18.30
2019-03-29T08:33:55.813Z,18.70
2019-03-29T08:34:55.802Z,18.40
2019-03-29T08:35:55.794Z,18.30
2019-03-29T08:36:55.780Z,18.10
2019-03-29T08:37:55.770Z,17.80
2019-03-29T08:38:55.759Z,17.40
2019-03-29T08:39:56.655Z,18.60
2019-03-29T08:40:55.738Z,17.30
2019-03-29T08:42:00.281Z,18.80
2019-03-29T08:42:55.715Z,16.60
2019-03-29T08:43:55.704Z,16.50
2019-03-29T08:44:55.695Z,17.50
2019-03-29T08:45:57.565Z,18.30
2019-03-29T08:46:55.669Z,16.80
2019-03-29T08:47:55.662Z,16.60
2019-03-29T08:48:55.651Z,16.70
2019-03-29T08:49:55.639Z,17.80
2019-03-29T08:50:55.630Z,16.70
2019-03-29T08:51:55.617Z,15.50
2019-03-29T08:52:55.608Z,17.10
2019-03-29T08:53:55.600Z,15.80
2019-03-29T08:54:55.582Z,14.90
2019-03-29T08:55:55.574Z,16.90
2019-03-29T08:56:55.565Z,16.80
2019-03-29T08:57:55.551Z,15.50
2019-03-29T08:58:55.542Z,15.80
2019-03-29T08:59:55.533Z,16.40
2019-03-29T09:00:55.522Z,17.70
2019-03-29T09:01:55.510Z,16.00
2019-03-29T09:02:55.501Z,14.40
2019-03-29T09:04:05.105Z,14.50
2019-03-29T09:04:55.478Z,14.70
2019-03-29T09:05:55.469Z,14.50
2019-03-29T09:06:55.454Z,18.60
2019-03-29T09:07:55.444Z,14.70
2019-03-29T09:08:55.437Z,14.80
2019-03-29T09:09:55.425Z,14.60
2019-03-29T09:10:55.411Z,14.60
2019-03-29T09:11:55.400Z,16.40
2019-03-29T09:12:55.392Z,14.10
2019-03-29T09:13:55.381Z,14.00
2019-03-29T09:14:55.373Z,14.30
2019-03-29T09:15:55.362Z,13.80
2019-03-29T09:16:55.351Z,14.30
2019-03-29T09:17:55.338Z,15.00
2019-03-29T09:18:55.329Z,13.60
2019-03-29T09:19:55.320Z,14.70
2019-03-29T09:20:55.307Z,14.90
2019-03-29T09:21:55.302Z,16.70
2019-03-29T09:22:55.285Z,14.90
2019-03-29T09:23:55.275Z,14.40
2019-03-29T09:24:55.265Z,17.00
2019-03-29T09:25:55.255Z,13.70
2019-03-29T09:26:55.258Z,15.50
2019-03-29T09:27:55.236Z,17.00
2019-03-29T09:28:55.235Z,17.00
2019-03-29T09:29:55.216Z,15.30
2019-03-29T09:30:56.775Z,13.30
2019-03-29T09:31:55.194Z,14.40
2019-03-29T09:32:55.183Z,16.40
2019-03-29T09:33:58.382Z,17.00
2019-03-29T09:34:55.164Z,15.10
2019-03-29T09:35:55.154Z,14.80
2019-03-29T09:36:55.152Z,16.50
2019-03-29T09:37:56.689Z,16.40
2019-03-29T09:38:55.127Z,14.50
2019-03-29T09:39:55.117Z,14.50
2019-03-29T09:40:58.656Z,13.60
2019-03-29T09:41:55.093Z,15.40
2019-03-29T09:43:06.936Z,13.90
2019-03-29T09:43:55.075Z,14.40
2019-03-29T09:44:55.065Z,13.10
2019-03-29T09:45:55.059Z,13.50
2019-03-29T09:46:55.045Z,13.50
2019-03-29T09:47:56.065Z,13.80
2019-03-29T09:48:55.031Z,15.50
2019-03-29T09:49:55.017Z,16.30
2019-03-29T09:50:55.008Z,14.50
2019-03-29T09:51:55.025Z,14.80
2019-03-29T09:52:54.992Z,14.20
2019-03-29T09:53:57.790Z,13.60
2019-03-29T09:54:54.970Z,12.50
2019-03-29T09:55:54.963Z,12.90
2019-03-29T09:56:54.953Z,15.30
2019-03-29T09:57:54.942Z,14.60
2019-03-29T09:58:54.931Z,13.50
2019-03-29T09:59:54.923Z,13.50
2019-03-29T10:00:54.918Z,13.90
2019-03-29T10:01:54.908Z,17.10
2019-03-29T10:02:54.899Z,13.30
2019-03-29T10:03:54.887Z,13.40
2019-03-29T10:04:54.880Z,15.70
2019-03-29T10:05:54.870Z,14.60
2019-03-29T10:06:54.865Z,14.00
2019-03-29T10:07:54.850Z,14.00
2019-03-29T10:08:54.843Z,14.10
2019-03-29T10:09:54.831Z,13.30
2019-03-29T10:10:54.827Z,13.30
2019-03-29T10:11:54.817Z,14.80
2019-03-29T10:12:54.810Z,14.60
2019-03-29T10:13:54.800Z,16.00
2019-03-29T10:14:54.792Z,13.00
2019-03-29T10:15:54.785Z,13.70
2019-03-29T10:16:54.778Z,14.60
2019-03-29T10:17:54.766Z,14.20
2019-03-29T10:18:54.759Z,13.20
2019-03-29T10:19:54.753Z,12.40
2019-03-29T10:20:54.741Z,14.00
2019-03-29T10:21:54.733Z,15.00
2019-03-29T10:22:54.724Z,15.40
2019-03-29T10:23:54.713Z,13.90
2019-03-29T10:24:54.707Z,13.80
2019-03-29T10:25:54.699Z,13.60
2019-03-29T10:26:54.711Z,14.70
2019-03-29T10:27:54.686Z,14.40
2019-03-29T10:28:54.675Z,14.20
2019-03-29T10:29:54.669Z,13.20
2019-03-29T10:30:54.657Z,13.20
2019-03-29T10:31:54.653Z,14.70
2019-03-29T10:32:55.575Z,13.40
2019-03-29T10:33:54.633Z,12.90
2019-03-29T10:34:54.630Z,14.70
2019-03-29T10:35:54.621Z,13.20
2019-03-29T10:36:54.613Z,12.90
2019-03-29T10:37:54.608Z,15.90
2019-03-29T10:38:54.594Z,12.70
2019-03-29T10:39:54.590Z,13.30
2019-03-29T10:40:54.581Z,14.10
2019-03-29T10:41:54.575Z,15.20
2019-03-29T10:42:58.076Z,14.60
2019-03-29T10:43:54.561Z,12.20
2019-03-29T10:44:54.552Z,11.90
2019-03-29T10:45:54.544Z,14.30
2019-03-29T10:46:54.534Z,13.00
2019-03-29T10:47:54.536Z,12.80
2019-03-29T10:48:54.518Z,13.20
2019-03-29T10:49:54.513Z,12.80
2019-03-29T10:50:54.507Z,13.70
2019-03-29T10:51:54.498Z,13.40
2019-03-29T10:52:54.491Z,12.60
2019-03-29T10:53:54.489Z,13.00
2019-03-29T10:54:54.481Z,13.30
2019-03-29T10:55:54.468Z,13.10
2019-03-29T10:56:54.462Z,13.00
2019-03-29T10:57:54.455Z,12.60
2019-03-29T10:58:54.447Z,14.90
2019-03-29T10:59:54.439Z,15.70
2019-03-29T11:00:54.434Z,13.10
2019-03-29T11:01:54.429Z,16.30
2019-03-29T11:02:54.420Z,16.00
2019-03-29T11:03:54.410Z,12.00
2019-03-29T11:04:54.402Z,11.80
2019-03-29T11:05:54.395Z,13.00
2019-03-29T11:06:54.390Z,11.90
2019-03-29T11:07:54.387Z,12.80
2019-03-29T11:08:54.373Z,11.20
2019-03-29T11:09:54.371Z,12.30
2019-03-29T11:10:54.361Z,12.10
2019-03-29T11:11:54.354Z,11.30
2019-03-29T11:12:54.348Z,13.00
2019-03-29T11:13:56.662Z,11.40
2019-03-29T11:14:54.333Z,12.00
2019-03-29T11:15:54.324Z,12.30
2019-03-29T11:16:54.318Z,11.60
2019-03-29T11:17:54.309Z,11.50
2019-03-29T11:18:54.304Z,13.50
2019-03-29T11:19:54.299Z,16.10
2019-03-29T11:20:54.290Z,13.00
2019-03-29T11:21:54.283Z,12.60
2019-03-29T11:22:54.279Z,11.10
2019-03-29T11:23:54.270Z,12.50
2019-03-29T11:24:54.264Z,14.00
2019-03-29T11:25:54.256Z,11.00
2019-03-29T11:26:54.251Z,12.20
2019-03-29T11:27:54.246Z,11.10
2019-03-29T11:28:54.242Z,12.40
2019-03-29T11:29:54.230Z,11.10
2019-03-29T11:30:54.220Z,12.30
2019-03-29T11:31:54.215Z,11.70
2019-03-29T11:32:54.209Z,13.10
2019-03-29T11:33:54.204Z,13.90
2019-03-29T11:34:54.193Z,12.20
2019-03-29T11:35:54.187Z,11.80
2019-03-29T11:36:54.181Z,13.30
2019-03-29T11:37:54.179Z,12.60
2019-03-29T11:38:54.172Z,10.50
2019-03-29T11:39:54.162Z,11.70
2019-03-29T11:40:54.161Z,11.60
2019-03-29T11:41:54.152Z,10.80
2019-03-29T11:42:54.142Z,12.90
2019-03-29T11:43:54.136Z,11.10
2019-03-29T11:44:54.131Z,11.80
2019-03-29T11:45:54.124Z,13.90
2019-03-29T11:46:54.117Z,10.10
2019-03-29T11:48:07.422Z,13.40
2019-03-29T11:48:54.106Z,11.00
2019-03-29T11:49:54.101Z,10.00
2019-03-29T11:50:54.090Z,10.80
2019-03-29T11:51:54.089Z,13.40
2019-03-29T11:52:54.079Z,10.40
2019-03-29T11:53:54.082Z,12.10
2019-03-29T11:54:54.070Z,13.00
2019-03-29T11:55:54.060Z,12.30
2019-03-29T11:56:54.062Z,9.80
2019-03-29T11:57:55.851Z,11.70
2019-03-29T11:58:54.040Z,11.00
2019-03-29T11:59:54.037Z,10.10
2019-03-29T12:00:54.031Z,12.70
2019-03-29T12:01:54.023Z,10.10
2019-03-29T12:02:54.016Z,11.50
2019-03-29T12:03:54.010Z,11.70
2019-03-29T12:04:54.012Z,12.30
2019-03-29T12:05:54.002Z,11.30
2019-03-29T12:06:53.999Z,11.60
2019-03-29T12:07:53.988Z,12.00
2019-03-29T12:08:56.992Z,12.30
2019-03-29T12:09:53.978Z,12.10
2019-03-29T12:10:53.972Z,11.20
2019-03-29T12:11:53.964Z,11.10
2019-03-29T12:12:53.957Z,11.90
2019-03-29T12:13:53.958Z,12.00
2019-03-29T12:14:53.945Z,11.50
2019-03-29T12:15:53.941Z,13.10
2019-03-29T12:16:53.935Z,11.60
2019-03-29T12:17:53.974Z,12.20
2019-03-29T12:18:53.920Z,11.00
2019-03-29T12:19:53.915Z,11.10
2019-03-29T12:20:54.500Z,11.40
2019-03-29T12:21:53.905Z,25.00
2019-03-29T12:22:53.900Z,15.00
2019-03-29T12:23:53.892Z,13.40
2019-03-29T12:24:53.887Z,21.50
2019-03-29T12:25:53.878Z,11.80
2019-03-29T12:26:55.077Z,11.00
2019-03-29T12:27:53.868Z,12.40
2019-03-29T12:28:53.866Z,12.70
2019-03-29T12:29:53.856Z,13.00
2019-03-29T12:30:53.852Z,10.70
2019-03-29T12:31:53.847Z,9.90
2019-03-29T12:32:53.845Z,10.50
2019-03-29T12:33:53.836Z,11.90
2019-03-29T12:34:53.830Z,10.80
2019-03-29T12:35:53.827Z,11.10
2019-03-29T12:36:53.867Z,12.20
2019-03-29T12:37:53.811Z,10.70
2019-03-29T12:38:53.810Z,11.30
2019-03-29T12:39:53.804Z,11.70
2019-03-29T12:40:53.796Z,13.80
2019-03-29T12:41:53.793Z,14.20
2019-03-29T12:42:53.788Z,11.60
2019-03-29T12:43:55.869Z,10.50
2019-03-29T12:44:53.774Z,11.80
2019-03-29T12:45:53.766Z,12.20
2019-03-29T12:46:53.765Z,11.20
2019-03-29T12:47:53.760Z,11.20
2019-03-29T12:48:53.754Z,11.60
2019-03-29T12:49:53.745Z,10.50
2019-03-29T12:50:53.740Z,11.40
2019-03-29T12:51:53.735Z,11.80
2019-03-29T12:52:53.739Z,11.80
2019-03-29T12:53:53.723Z,12.40